首页
METAR-TAF:

METAR-TAF

机场 :

巴蘭卡韋梅哈, 哥伦比亚

纬度: 07-01N, 经度: 073-48W, 海拔: 126米

当前天气观测

该预报发布于4小时和52分钟前的22:00 UTC
风速7节,风向东北
温度 31°C
湿度 66%
气压 1008 hPa
能见度10公里或以上
少量云层高于1700英尺

METAR: SKEJ 242200Z 04007KT 9999 FEW017 31/24 Q1008

时间: 21:52 (02:52 UTC)


TAF: 丢失

超过4000个机场的气象观测和天气预报(METAR&TAF报告)。

可查询的气象台以黄色和红色小点在地图上表示。

将鼠标移到小点上方,可查看气象台名称。

然后点击查看天气观测和预报。

如需切换地图:点击带黑十字的绿色按钮放大地图;点击带横线的绿色按钮缩小地图;或者点击绿色箭头查看邻近地区的地图。


METAR-TAF: